Time;durP1;ratioP1;P1;durP2;ratioP2;P2;SDS_P1;SDS_P2;PMS_P1;PMS_P2;Temp;Humidity;BMP_temperature;BMP_pressure;BME280_temperature;BME280_humidity;BME280_pressure;Samples;Min_cycle;Max_cycle;Signal;HPM_P1;HPM_P2
2022/05/14 00:01:29;;;;;;;14.23;3.80;;;12.40;99.90;;;;;;5028085;28;20042;-70
2022/05/14 00:03:56;;;;;;;14.45;4.20;;;12.40;99.90;;;;;;5027268;28;20056;-71
2022/05/14 00:06:25;;;;;;;10.45;3.35;;;12.40;99.90;;;;;;5028979;28;20563;-71
2022/05/14 00:08:52;;;;;;;12.13;3.90;;;12.40;99.90;;;;;;5013831;28;20049;-71
2022/05/14 00:14:04;;;;;;;11.95;3.83;;;12.30;99.90;;;;;;5029657;28;20065;-71
2022/05/14 00:16:34;;;;;;;14.35;3.78;;;12.20;99.90;;;;;;5023178;28;20037;-71
2022/05/14 00:19:01;;;;;;;10.65;3.58;;;12.40;99.90;;;;;;5025466;28;20114;-71
2022/05/14 00:21:27;;;;;;;16.05;5.03;;;12.20;99.90;;;;;;5027314;28;20125;-71
2022/05/14 00:23:53;;;;;;;15.55;4.55;;;12.20;99.90;;;;;;5015797;28;20088;-71
2022/05/14 00:26:21;;;;;;;15.95;4.78;;;12.10;99.90;;;;;;5027403;28;20089;-71
2022/05/14 00:28:48;;;;;;;16.00;4.68;;;12.10;99.90;;;;;;5024872;28;20046;-71
2022/05/14 00:31:13;;;;;;;13.60;4.30;;;12.10;99.90;;;;;;5027656;28;20175;-71
2022/05/14 00:33:45;;;;;;;11.95;3.85;;;12.10;99.90;;;;;;5022960;28;20129;-71
2022/05/14 00:36:15;;;;;;;15.10;4.65;;;12.10;99.90;;;;;;5027182;28;20064;-71
2022/05/14 00:38:41;;;;;;;11.20;4.40;;;12.10;99.90;;;;;;5025064;28;20124;-71
2022/05/14 00:41:08;;;;;;;17.30;4.82;;;12.10;99.90;;;;;;5026422;28;20057;-71
2022/05/14 00:43:47;;;;;;;11.70;4.68;;;12.00;99.90;;;;;;5028385;28;20050;-71
2022/05/14 00:46:22;;;;;;;14.60;4.05;;;12.00;99.90;;;;;;5026569;28;20053;-71
2022/05/14 00:48:50;;;;;;;13.63;4.15;;;12.00;99.90;;;;;;5028051;28;20116;-71
2022/05/14 00:51:25;;;;;;;11.73;3.67;;;12.00;99.90;;;;;;5026872;28;20144;-70
2022/05/14 00:53:52;;;;;;;;;;;12.00;99.90;;;;;;5059688;28;20052;-71
2022/05/14 00:56:22;;;;;;;13.52;4.05;;;12.00;99.90;;;;;;5026813;28;19925;-71
2022/05/14 00:58:57;;;;;;;13.75;4.45;;;12.00;99.90;;;;;;5024400;28;20045;-71
2022/05/14 01:01:22;;;;;;;17.27;4.75;;;11.90;99.90;;;;;;5023305;28;20605;-72
2022/05/14 01:03:48;;;;;;;14.02;5.25;;;11.90;99.90;;;;;;5025545;28;20045;-71
2022/05/14 01:06:18;;;;;;;14.43;4.90;;;11.90;99.90;;;;;;5025338;28;20052;-70
2022/05/14 01:08:44;;;;;;;14.98;4.70;;;11.90;99.90;;;;;;5027826;28;20053;-71
2022/05/14 01:11:12;;;;;;;12.23;4.25;;;11.90;99.90;;;;;;5027414;28;20045;-72
2022/05/14 01:13:46;;;;;;;11.82;4.10;;;11.90;99.90;;;;;;5022943;28;20103;-71
2022/05/14 01:16:13;;;;;;;14.68;4.80;;;12.00;99.90;;;;;;5019434;28;20041;-71
2022/05/14 01:18:39;;;;;;;10.82;4.88;;;12.00;99.90;;;;;;5024886;28;20133;-71
2022/05/14 01:21:28;;;;;;;14.43;4.57;;;12.00;99.90;;;;;;5008474;28;20128;-71
2022/05/14 01:26:46;;;;;;;19.98;5.40;;;12.00;99.90;;;;;;5022665;28;20054;-71
2022/05/14 01:29:24;;;;;;;17.05;4.75;;;12.00;99.90;;;;;;5025127;28;20135;-71
2022/05/14 01:31:51;;;;;;;13.63;5.22;;;12.00;99.90;;;;;;5016578;28;20046;-71
2022/05/14 01:34:23;;;;;;;21.67;6.22;;;12.00;99.90;;;;;;5027850;28;20052;-72
2022/05/14 01:36:49;;;;;;;11.75;4.90;;;12.00;99.90;;;;;;5027400;28;20045;-71
2022/05/14 01:39:17;;;;;;;14.73;5.82;;;12.00;99.90;;;;;;5028176;28;20373;-71
2022/05/14 01:41:43;;;;;;;11.00;5.35;;;11.90;99.90;;;;;;5026299;28;20045;-71
2022/05/14 01:44:12;;;;;;;15.75;5.00;;;11.90;99.90;;;;;;5025255;28;20133;-71
2022/05/14 01:46:38;;;;;;;12.48;4.13;;;11.90;99.90;;;;;;5027994;28;20041;-71
2022/05/14 01:49:04;;;;;;;17.75;5.40;;;11.90;99.90;;;;;;5026133;28;20060;-71
2022/05/14 01:51:30;;;;;;;17.10;5.63;;;11.80;99.90;;;;;;5029424;28;20058;-71
2022/05/14 01:53:56;;;;;;;19.15;6.15;;;11.80;99.90;;;;;;5035120;28;20048;-70
2022/05/14 01:56:23;;;;;;;24.13;6.03;;;11.80;99.90;;;;;;5027686;28;20072;-71
2022/05/14 01:58:49;;;;;;;17.83;5.63;;;11.80;99.90;;;;;;5028985;28;20495;-71
2022/05/14 02:01:30;;;;;;;22.55;6.75;;;11.80;99.90;;;;;;5027298;28;20077;-71
2022/05/14 02:04:03;;;;;;;19.58;6.65;;;11.80;99.90;;;;;;5023299;28;20049;-71
2022/05/14 02:06:29;;;;;;;18.95;6.95;;;11.70;99.90;;;;;;5026487;28;20052;-72
2022/05/14 02:08:56;;;;;;;22.33;7.15;;;11.70;99.90;;;;;;5025846;28;20054;-72
2022/05/14 02:11:22;;;;;;;19.40;7.50;;;11.70;99.90;;;;;;5039525;28;20103;-71
2022/05/14 02:13:50;;;;;;;19.40;6.85;;;11.70;99.90;;;;;;5028804;28;20049;-71
2022/05/14 02:16:16;;;;;;;18.98;6.85;;;11.60;99.90;;;;;;5025825;28;20117;-71
2022/05/14 02:18:42;;;;;;;16.60;6.95;;;11.60;99.90;;;;;;5029912;28;20129;-71
2022/05/14 02:21:10;;;;;;;19.15;6.90;;;11.50;99.90;;;;;;5028887;28;20072;-71
2022/05/14 02:23:38;;;;;;;14.77;6.38;;;11.50;99.90;;;;;;5026143;28;20042;-70
2022/05/14 02:26:11;;;;;;;21.23;7.55;;;11.50;99.90;;;;;;5025564;28;20060;-71
2022/05/14 02:28:41;;;;;;;24.95;6.55;;;11.40;99.90;;;;;;5030960;28;20179;-72
2022/05/14 02:31:07;;;;;;;16.33;6.47;;;11.40;99.90;;;;;;5028942;28;20518;-70
2022/05/14 02:33:33;;;;;;;20.77;7.38;;;11.40;99.90;;;;;;5025498;28;20095;-71
2022/05/14 02:35:59;;;;;;;21.92;6.68;;;11.30;99.90;;;;;;5061108;28;20068;-72
2022/05/14 02:38:26;;;;;;;17.80;6.65;;;11.30;99.90;;;;;;5029517;28;20045;-71
2022/05/14 02:40:52;;;;;;;21.85;8.05;;;11.30;99.90;;;;;;5017910;28;20674;-70
2022/05/14 02:43:17;;;;;;;19.08;7.45;;;11.20;99.90;;;;;;5029987;28;20042;-71
2022/05/14 02:45:44;;;;;;;20.70;7.20;;;11.10;99.90;;;;;;5030506;28;20505;-72
2022/05/14 02:48:11;;;;;;;23.52;6.85;;;11.10;99.90;;;;;;5026053;28;20050;-70
2022/05/14 02:50:39;;;;;;;16.73;7.30;;;11.10;99.90;;;;;;5056603;28;20128;-71
2022/05/14 02:53:09;;;;;;;21.13;7.85;;;11.00;99.90;;;;;;5027035;28;20037;-71
2022/05/14 02:55:35;;;;;;;23.48;8.15;;;11.00;99.90;;;;;;5027112;28;20050;-71
2022/05/14 02:58:01;;;;;;;18.13;6.88;;;11.00;99.90;;;;;;5022347;28;20042;-71
2022/05/14 03:00:27;;;;;;;22.10;7.82;;;11.00;99.90;;;;;;5060023;28;20108;-71
2022/05/14 03:02:53;;;;;;;22.50;7.70;;;11.00;99.90;;;;;;5054579;28;20042;-71
2022/05/14 03:05:20;;;;;;;17.63;7.15;;;10.90;99.90;;;;;;5021755;28;20050;-71
2022/05/14 03:07:51;;;;;;;21.42;7.55;;;10.90;99.90;;;;;;5022550;28;20544;-71
2022/05/14 03:10:17;;;;;;;24.00;7.32;;;10.90;99.90;;;;;;5023620;28;21058;-71
2022/05/14 03:12:43;;;;;;;23.58;8.30;;;10.80;99.90;;;;;;5028523;28;20072;-71
2022/05/14 03:15:10;;;;;;;26.88;8.50;;;10.80;99.90;;;;;;5061235;28;20076;-71
2022/05/14 03:17:36;;;;;;;19.48;8.32;;;10.80;99.90;;;;;;5024316;28;20053;-70
2022/05/14 03:20:08;;;;;;;22.95;8.80;;;10.80;99.90;;;;;;5057632;28;20053;-70
2022/05/14 03:22:35;;;;;;;22.88;8.93;;;10.70;99.90;;;;;;5026246;28;20112;-71
2022/05/14 03:25:02;;;;;;;30.05;10.05;;;10.80;99.90;;;;;;5056453;28;20045;-71
2022/05/14 03:27:28;;;;;;;29.77;10.73;;;10.80;99.90;;;;;;5025494;28;20437;-71
2022/05/14 03:29:54;;;;;;;25.92;9.90;;;10.70;99.90;;;;;;5050991;28;20191;-70
2022/05/14 03:32:20;;;;;;;29.25;8.75;;;10.70;99.90;;;;;;5010001;28;20409;-70
2022/05/14 03:34:47;;;;;;;26.20;9.95;;;10.70;99.90;;;;;;5054520;28;20041;-71
2022/05/14 03:37:14;;;;;;;28.65;10.57;;;10.70;99.90;;;;;;5024440;28;20049;-71
2022/05/14 03:39:46;;;;;;;23.00;8.50;;;10.70;99.90;;;;;;5029789;28;20041;-71
2022/05/14 03:42:12;;;;;;;23.02;8.95;;;10.70;99.90;;;;;;5030257;28;20049;-70
2022/05/14 03:44:37;;;;;;;29.30;10.63;;;10.70;99.90;;;;;;5026815;28;20052;-71
2022/05/14 03:47:03;;;;;;;24.08;8.88;;;10.60;99.90;;;;;;5029946;28;20055;-71
2022/05/14 03:49:29;;;;;;;23.92;9.93;;;10.60;99.90;;;;;;5027756;28;20433;-71
2022/05/14 03:51:58;;;;;;;29.63;10.27;;;10.60;99.90;;;;;;5029633;28;20048;-71
2022/05/14 03:54:23;;;;;;;24.88;8.85;;;10.60;99.90;;;;;;5040704;28;20040;-70
2022/05/14 03:56:51;;;;;;;33.65;10.60;;;10.60;99.90;;;;;;5022242;28;20108;-71
2022/05/14 03:59:20;;;;;;;20.90;9.68;;;10.60;99.90;;;;;;5026781;28;20038;-70
2022/05/14 04:01:45;;;;;;;29.23;10.27;;;10.60;99.90;;;;;;5020282;28;20536;-71
2022/05/14 04:04:11;;;;;;;28.90;11.07;;;10.60;99.90;;;;;;5026182;28;20500;-71
2022/05/14 04:06:37;;;;;;;26.55;9.98;;;10.60;99.90;;;;;;5026587;28;20080;-70
2022/05/14 04:09:05;;;;;;;31.02;10.40;;;10.70;99.90;;;;;;5025290;28;20473;-71
2022/05/14 04:11:31;;;;;;;31.63;10.45;;;10.70;99.90;;;;;;5021731;28;20046;-71
2022/05/14 04:13:57;;;;;;;29.50;11.32;;;10.70;99.90;;;;;;5027405;28;20060;-71
2022/05/14 04:16:23;;;;;;;28.73;10.00;;;10.70;99.90;;;;;;5025719;28;20065;-71
2022/05/14 04:18:52;;;;;;;33.25;9.60;;;10.70;99.90;;;;;;5020999;28;20540;-72
2022/05/14 04:21:19;;;;;;;25.20;9.15;;;10.70;99.90;;;;;;5028590;28;20120;-71
2022/05/14 04:23:45;;;;;;;26.25;10.35;;;10.70;99.90;;;;;;5019434;28;20042;-71
2022/05/14 04:26:10;;;;;;;27.10;10.10;;;10.80;99.90;;;;;;5026686;28;20048;-71
2022/05/14 04:28:37;;;;;;;32.17;11.60;;;10.80;99.90;;;;;;5021440;28;20080;-71
2022/05/14 04:31:03;;;;;;;25.10;10.23;;;10.80;99.90;;;;;;5061863;28;20320;-70
2022/05/14 04:33:29;;;;;;;30.95;10.60;;;10.80;99.90;;;;;;5028224;28;20123;-71
2022/05/14 04:35:58;;;;;;;26.95;11.23;;;10.90;99.90;;;;;;5021514;28;20071;-70
2022/05/14 04:38:23;;;;;;;28.98;10.43;;;10.90;99.90;;;;;;5027255;28;20034;-71
2022/05/14 04:40:52;;;;;;;22.42;9.73;;;10.90;99.90;;;;;;5024417;28;20060;-71
2022/05/14 04:43:18;;;;;;;24.77;10.27;;;10.90;99.90;;;;;;5025787;28;20033;-70
2022/05/14 04:45:44;;;;;;;32.58;10.18;;;10.90;99.90;;;;;;5019222;28;20053;-71
2022/05/14 04:48:11;;;;;;;28.63;11.63;;;10.90;99.90;;;;;;5025438;28;20056;-71
2022/05/14 04:50:38;;;;;;;26.15;10.73;;;11.00;99.90;;;;;;5010346;28;20382;-71
2022/05/14 04:53:04;;;;;;;25.48;10.70;;;11.00;99.90;;;;;;5027767;28;20425;-70
2022/05/14 04:55:33;;;;;;;27.83;9.45;;;11.00;99.90;;;;;;5025354;28;20072;-71
2022/05/14 04:57:59;;;;;;;35.17;10.73;;;11.00;99.90;;;;;;5025238;28;20559;-71
2022/05/14 05:00:29;;;;;;;37.03;11.48;;;11.10;99.90;;;;;;5027557;28;20037;-72
2022/05/14 05:05:39;;;;;;;29.13;10.73;;;11.10;99.90;;;;;;5026329;28;20057;-71
2022/05/14 05:08:05;;;;;;;35.90;12.32;;;11.10;99.90;;;;;;5022594;28;20064;-71
2022/05/14 05:10:30;;;;;;;34.42;11.23;;;11.20;99.90;;;;;;5026401;28;20053;-71
2022/05/14 05:12:59;;;;;;;28.70;10.75;;;11.20;99.90;;;;;;5018853;28;20049;-72
2022/05/14 05:15:25;;;;;;;34.15;12.30;;;11.20;99.90;;;;;;5025981;28;20045;-71
2022/05/14 05:17:55;;;;;;;23.15;8.70;;;11.20;99.90;;;;;;5024221;28;20041;-71
2022/05/14 05:20:21;;;;;;;27.90;11.57;;;11.20;99.90;;;;;;5027644;28;20049;-71
2022/05/14 05:22:48;;;;;;;25.27;10.13;;;11.20;99.90;;;;;;5021509;28;20041;-71
2022/05/14 05:25:14;;;;;;;40.03;11.00;;;11.20;99.90;;;;;;5025944;28;20053;-71
2022/05/14 05:27:40;;;;;;;34.83;11.27;;;11.30;99.90;;;;;;5024288;28;20048;-71
2022/05/14 05:30:07;;;;;;;31.20;10.40;;;11.30;99.90;;;;;;5061338;28;20061;-71
2022/05/14 05:32:32;;;;;;;30.02;10.50;;;11.50;99.90;;;;;;5023787;28;20600;-71
2022/05/14 05:34:58;;;;;;;34.53;12.07;;;11.50;99.90;;;;;;5026594;28;20211;-71
2022/05/14 05:37:24;;;;;;;35.75;11.13;;;11.60;99.90;;;;;;5023380;28;20075;-72
2022/05/14 05:39:49;;;;;;;32.00;10.20;;;11.70;99.90;;;;;;5026393;28;20065;-73
2022/05/14 05:42:18;;;;;;;26.75;9.77;;;11.70;99.90;;;;;;5027260;28;20052;-72
2022/05/14 05:44:46;;;;;;;34.03;10.43;;;11.80;99.90;;;;;;5026282;28;20496;-73
2022/05/14 05:47:12;;;;;;;35.40;11.25;;;11.90;99.90;;;;;;5026398;28;20143;-73
2022/05/14 05:49:39;;;;;;;27.30;10.02;;;11.90;99.90;;;;;;5030066;28;20056;-73
2022/05/14 05:52:05;;;;;;;34.55;10.88;;;12.00;99.90;;;;;;5022795;28;20081;-73
2022/05/14 05:57:15;;;;;;;31.38;10.57;;;12.20;99.90;;;;;;5029234;28;20046;-72
2022/05/14 05:59:41;;;;;;;35.60;10.05;;;12.20;99.90;;;;;;5024455;28;20477;-73
2022/05/14 06:02:08;;;;;;;28.38;10.95;;;12.30;99.90;;;;;;5029475;28;20037;-72
2022/05/14 06:04:34;;;;;;;34.67;10.98;;;12.40;99.90;;;;;;5059277;28;20095;-71
2022/05/14 06:07:00;;;;;;;29.38;10.07;;;12.50;99.90;;;;;;5026807;28;20085;-71
2022/05/14 06:09:26;;;;;;;27.35;11.10;;;12.60;99.90;;;;;;5028633;28;20072;-71
2022/05/14 06:11:52;;;;;;;41.53;11.20;;;12.60;99.90;;;;;;5031233;28;20053;-71
2022/05/14 06:14:18;;;;;;;23.17;9.75;;;12.70;99.90;;;;;;5029732;28;20042;-71
2022/05/14 06:16:45;;;;;;;30.38;10.82;;;12.70;99.90;;;;;;5028078;28;20432;-72
2022/05/14 06:19:11;;;;;;;30.17;10.38;;;12.70;99.90;;;;;;5059531;28;20072;-71
2022/05/14 06:21:38;;;;;;;32.08;9.70;;;12.80;99.90;;;;;;5020430;28;20692;-71
2022/05/14 06:24:06;;;;;;;31.30;9.55;;;12.90;99.90;;;;;;5024248;28;20138;-71
2022/05/14 06:26:32;;;;;;;25.85;10.40;;;12.90;99.90;;;;;;5030911;28;20041;-71
2022/05/14 06:28:59;;;;;;;36.85;9.90;;;12.90;99.90;;;;;;5028460;28;20258;-72
2022/05/14 06:31:25;;;;;;;31.52;9.18;;;12.90;99.90;;;;;;5031220;28;20516;-73
2022/05/14 06:33:51;;;;;;;26.65;8.85;;;13.00;99.90;;;;;;5029477;28;20056;-72
2022/05/14 06:36:17;;;;;;;26.23;9.55;;;13.00;99.90;;;;;;5028522;28;20037;-72
2022/05/14 06:38:42;;;;;;;25.85;8.45;;;13.10;99.90;;;;;;5026321;28;20432;-73
2022/05/14 06:41:11;;;;;;;30.27;8.70;;;13.10;99.90;;;;;;5029101;28;20049;-72
2022/05/14 06:43:37;;;;;;;27.92;8.20;;;13.10;99.90;;;;;;5024550;28;20129;-72
2022/05/14 06:46:03;;;;;;;36.15;10.02;;;13.10;99.90;;;;;;5023402;28;20267;-72
2022/05/14 06:48:29;;;;;;;28.02;8.20;;;13.20;99.90;;;;;;5028131;28;20496;-73
2022/05/14 06:50:58;;;;;;;27.17;7.93;;;13.20;99.90;;;;;;5028682;28;20053;-72
2022/05/14 06:53:24;;;;;;;26.08;8.55;;;13.20;99.90;;;;;;5047830;28;20048;-82
2022/05/14 06:55:55;;;;;;;23.98;6.20;;;13.20;99.90;;;;;;5023541;28;20029;-77
2022/05/14 06:58:26;;;;;;;32.13;7.30;;;13.30;99.90;;;;;;5040582;28;20053;-76
2022/05/14 07:00:52;;;;;;;23.00;7.72;;;13.30;99.90;;;;;;5023167;28;20826;-75
2022/05/14 07:08:47;;;;;;;20.67;6.18;;;13.50;99.90;;;;;;5025924;28;19925;-76
2022/05/14 07:11:12;;;;;;;24.48;6.25;;;13.70;99.90;;;;;;5027011;28;20045;-76
2022/05/14 07:13:39;;;;;;;20.80;5.15;;;13.80;99.90;;;;;;5027897;28;20073;-77
2022/05/14 07:16:05;;;;;;;26.27;6.00;;;14.10;99.90;;;;;;5024563;28;20065;-76
2022/05/14 07:18:32;;;;;;;21.90;5.03;;;14.30;99.90;;;;;;5026892;28;20079;-80
2022/05/14 07:20:58;;;;;;;17.85;6.07;;;14.70;99.90;;;;;;5028916;28;20132;-81
2022/05/14 07:23:23;;;;;;;19.15;5.78;;;14.90;99.90;;;;;;5019866;28;20440;-77
2022/05/14 07:25:49;;;;;;;21.80;5.93;;;15.20;99.90;;;;;;5024330;28;20064;-79
2022/05/14 07:28:15;;;;;;;23.55;6.35;;;15.40;99.90;;;;;;5028871;28;20103;-76
2022/05/14 07:30:41;;;;;;;24.90;5.45;;;15.60;99.90;;;;;;5028452;28;20053;-77
2022/05/14 07:33:06;;;;;;;25.25;5.60;;;15.60;99.90;;;;;;5044669;28;20125;-76
2022/05/14 07:35:33;;;;;;;21.95;4.82;;;15.60;99.90;;;;;;5063966;28;20489;-77
2022/05/14 07:38:02;;;;;;;21.85;5.63;;;15.50;99.90;;;;;;5023353;28;20050;-76
2022/05/14 07:40:30;;;;;;;22.27;5.35;;;15.50;99.90;;;;;;5026532;28;20050;-76
2022/05/14 07:43:03;;;;;;;23.20;5.60;;;15.50;99.90;;;;;;5031849;28;20057;-77
2022/05/14 07:45:33;;;;;;;24.08;4.82;;;15.60;99.90;;;;;;5025632;28;20110;-79
2022/05/14 07:48:02;;;;;;;19.85;4.72;;;15.60;99.90;;;;;;5028310;28;20050;-79
2022/05/14 07:50:31;;;;;;;20.67;4.70;;;15.70;99.90;;;;;;5027511;28;20164;-80
2022/05/14 07:52:57;;;;;;;19.25;4.40;;;15.80;99.90;;;;;;5027001;28;20122;-83
2022/05/14 07:55:23;;;;;;;21.48;4.95;;;16.00;99.90;;;;;;5030548;28;20049;-83
2022/05/14 07:57:49;;;;;;;21.38;4.22;;;16.10;99.90;;;;;;5024682;28;20046;-77
2022/05/14 08:00:15;;;;;;;21.85;4.55;;;16.20;99.90;;;;;;5027404;28;20072;-83
2022/05/14 08:02:44;;;;;;;19.75;4.40;;;16.30;99.90;;;;;;5021286;28;20049;-74
2022/05/14 08:05:10;;;;;;;24.67;4.65;;;16.40;99.90;;;;;;5018685;28;20049;-77
2022/05/14 08:07:37;;;;;;;28.40;4.88;;;16.40;99.90;;;;;;5017299;28;20087;-77
2022/05/14 08:10:04;;;;;;;20.02;3.75;;;16.50;99.90;;;;;;5028243;28;20049;-77
2022/05/14 08:12:39;;;;;;;17.85;4.25;;;16.60;99.90;;;;;;5029376;28;20510;-76
2022/05/14 08:15:15;;;;;;;17.50;3.95;;;16.60;99.90;;;;;;5030189;28;20053;-77
2022/05/14 08:17:51;;;;;;;18.67;4.00;;;16.70;99.90;;;;;;5029063;28;20076;-76
2022/05/14 08:20:22;;;;;;;20.98;4.63;;;16.80;99.90;;;;;;5064295;28;20056;-77
2022/05/14 08:26:09;;;;;;;21.33;4.57;;;17.00;99.90;;;;;;5011209;28;20049;-76
2022/05/14 08:29:19;;;;;;;18.27;3.88;;;17.10;99.90;;;;;;5014676;28;20041;-77
2022/05/14 08:31:45;;;;;;;17.02;4.18;;;17.20;99.90;;;;;;5030792;28;20045;-77
2022/05/14 08:34:11;;;;;;;17.95;4.38;;;17.30;99.90;;;;;;5030660;28;20380;-76
2022/05/14 08:36:37;;;;;;;18.75;4.07;;;17.40;99.90;;;;;;5030624;28;20041;-76
2022/05/14 08:39:03;;;;;;;18.77;4.30;;;17.50;99.90;;;;;;5023882;28;20077;-77
2022/05/14 08:41:31;;;;;;;15.20;4.25;;;17.60;99.90;;;;;;5034982;28;20365;-77
2022/05/14 08:44:06;;;;;;;20.63;4.80;;;17.70;99.90;;;;;;5034101;28;20503;-77
2022/05/14 08:46:35;;;;;;;20.00;4.32;;;17.90;99.90;;;;;;5035219;28;20128;-80
2022/05/14 08:49:14;;;;;;;21.00;5.15;;;18.10;99.90;;;;;;5030299;28;20042;-78
2022/05/14 08:51:44;;;;;;;16.80;4.75;;;18.30;99.90;;;;;;5010780;28;20057;-77
2022/05/14 08:54:10;;;;;;;18.77;4.53;;;18.30;99.90;;;;;;5030526;28;20038;-77
2022/05/14 08:56:53;;;;;;;20.30;5.28;;;18.30;99.90;;;;;;5023987;28;20080;-77
2022/05/14 08:59:47;;;;;;;16.35;4.57;;;18.20;99.90;;;;;;5029739;28;20041;-77
2022/05/14 09:02:37;;;;;;;29.80;5.53;;;18.10;99.90;;;;;;5018722;28;20065;-76
2022/05/14 09:05:31;;;;;;;18.23;4.38;;;18.00;99.90;;;;;;5005958;28;20551;-76
2022/05/14 09:07:57;;;;;;;22.57;4.50;;;18.00;99.90;;;;;;5029772;28;20559;-76
2022/05/14 09:10:35;;;;;;;19.52;4.43;;;18.10;99.90;;;;;;5030297;28;20288;-76
2022/05/14 09:13:11;;;;;;;17.25;4.28;;;18.40;99.90;;;;;;5042468;28;20485;-77
2022/05/14 09:15:52;;;;;;;23.13;5.00;;;18.70;99.90;;;;;;5039982;28;20068;-77
2022/05/14 09:18:28;;;;;;;15.73;4.07;;;18.90;99.50;;;;;;5029886;28;20046;-77
2022/05/14 09:20:58;;;;;;;16.10;4.05;;;19.00;99.10;;;;;;5029739;28;20574;-77
2022/05/14 09:23:37;;;;;;;24.73;4.72;;;19.20;99.60;;;;;;5035472;28;20080;-77
2022/05/14 09:26:11;;;;;;;18.05;4.07;;;19.40;99.60;;;;;;5023121;28;20128;-78
2022/05/14 09:29:12;;;;;;;16.50;4.38;;;19.50;98.80;;;;;;5032113;28;20489;-79
2022/05/14 09:31:51;;;;;;;27.00;5.30;;;19.60;98.70;;;;;;5023810;28;20053;-77
2022/05/14 09:34:19;;;;;;;19.00;4.80;;;19.50;97.60;;;;;;5030771;28;20049;-77
2022/05/14 09:36:48;;;;;;;19.00;4.32;;;19.30;98.20;;;;;;5037484;28;20048;-77
2022/05/14 09:39:22;;;;;;;22.48;4.28;;;19.20;98.20;;;;;;5033547;28;20056;-78
2022/05/14 09:41:49;;;;;;;16.60;4.30;;;19.10;98.70;;;;;;5034402;28;20132;-77
2022/05/14 09:44:21;;;;;;;15.88;4.18;;;19.30;98.70;;;;;;5035749;28;20033;-77
2022/05/14 09:46:47;;;;;;;18.35;4.68;;;19.40;97.90;;;;;;5053125;28;20116;-79
2022/05/14 09:49:21;;;;;;;16.40;4.75;;;19.60;97.20;;;;;;5036793;28;20420;-79
2022/05/14 09:51:54;;;;;;;16.42;4.20;;;19.70;96.40;;;;;;5050579;28;20186;-80
2022/05/14 09:54:25;;;;;;;17.15;4.22;;;19.70;96.00;;;;;;5032417;28;20516;-80
2022/05/14 09:57:06;;;;;;;21.52;4.38;;;19.60;96.40;;;;;;5031338;28;20045;-78
2022/05/14 09:59:54;;;;;;;17.70;4.25;;;19.60;96.40;;;;;;5024162;28;20046;-79
2022/05/14 10:02:34;;;;;;;13.82;3.83;;;19.70;95.80;;;;;;5019857;28;20056;-79
2022/05/14 10:05:16;;;;;;;16.67;4.25;;;19.70;95.80;;;;;;5033391;28;20385;-79
2022/05/14 10:07:52;;;;;;;28.30;4.93;;;19.80;95.50;;;;;;5032910;28;20080;-79
2022/05/14 10:10:39;;;;;;;18.85;4.32;;;19.90;96.50;;;;;;5034039;28;20141;-79
2022/05/14 10:13:14;;;;;;;20.73;4.07;;;19.90;94.70;;;;;;5028719;28;20056;-79
2022/05/14 10:15:50;;;;;;;17.55;4.15;;;19.80;95.40;;;;;;5023472;28;20095;-79
2022/05/14 10:18:47;;;;;;;18.63;4.55;;;19.70;95.20;;;;;;5033124;28;20451;-79
2022/05/14 10:21:30;;;;;;;19.20;4.63;;;19.50;95.40;;;;;;5039753;28;20057;-79
2022/05/14 10:27:10;;;;;;;28.60;4.22;;;19.30;95.80;;;;;;5028486;28;20073;-80
2022/05/14 10:29:57;;;;;;;16.38;4.30;;;19.20;95.70;;;;;;5030797;28;20084;-79
2022/05/14 10:32:27;;;;;;;31.77;5.10;;;19.10;96.30;;;;;;5036991;28;20050;-80
2022/05/14 10:35:21;;;;;;;18.90;4.00;;;19.10;96.30;;;;;;5033007;28;20081;-79
2022/05/14 10:37:50;;;;;;;21.70;4.67;;;19.00;96.50;;;;;;5045532;28;20124;-80
2022/05/14 10:40:40;;;;;;;38.63;5.57;;;19.10;96.50;;;;;;5023582;28;20053;-79
2022/05/14 10:43:12;;;;;;;27.17;4.43;;;19.30;96.40;;;;;;5028080;28;20603;-80
2022/05/14 10:45:44;;;;;;;18.27;3.95;;;19.30;96.10;;;;;;5029469;28;20075;-79
2022/05/14 10:48:22;;;;;;;17.95;4.40;;;19.30;95.60;;;;;;5028950;28;20091;-80
2022/05/14 10:50:51;;;;;;;19.63;4.10;;;19.30;95.20;;;;;;5021818;28;20149;-79
2022/05/14 10:53:17;;;;;;;16.17;3.95;;;19.20;95.80;;;;;;5035305;28;20049;-80
2022/05/14 10:56:07;;;;;;;22.15;4.68;;;19.30;95.90;;;;;;5031390;28;20373;-79
2022/05/14 10:58:45;;;;;;;17.15;4.18;;;19.30;95.00;;;;;;5025866;28;20392;-80
2022/05/14 11:01:26;;;;;;;17.42;4.15;;;19.20;94.60;;;;;;5031158;28;20052;-79
2022/05/14 11:04:17;;;;;;;19.55;4.00;;;19.30;94.20;;;;;;5029915;28;20053;-80
2022/05/14 11:06:51;;;;;;;16.73;4.25;;;19.50;94.70;;;;;;5027329;28;20053;-79
2022/05/14 11:09:42;;;;;;;17.08;4.22;;;19.60;94.50;;;;;;5028254;28;20439;-80
2022/05/14 11:12:31;;;;;;;18.10;4.13;;;19.90;94.90;;;;;;5028737;28;20092;-81
2022/05/14 11:15:01;;;;;;;14.20;3.72;;;20.20;94.10;;;;;;5033444;28;20045;-79
2022/05/14 11:17:38;;;;;;;19.65;4.72;;;20.00;94.20;;;;;;5031141;28;20064;-79
2022/05/14 11:20:04;;;;;;;19.00;3.92;;;19.90;93.10;;;;;;5028943;28;20137;-79
2022/05/14 11:22:39;;;;;;;18.98;4.82;;;19.90;94.30;;;;;;5030331;28;20548;-79
2022/05/14 11:25:19;;;;;;;26.65;4.30;;;19.90;93.90;;;;;;5006113;28;20041;-78
2022/05/14 11:28:01;;;;;;;17.67;4.28;;;19.80;93.80;;;;;;5027293;28;20045;-80
2022/05/14 11:30:39;;;;;;;21.08;5.68;;;19.90;94.00;;;;;;5054009;28;20061;-80
2022/05/14 11:33:17;;;;;;;16.33;4.13;;;19.80;93.60;;;;;;5039019;28;20508;-80
2022/05/14 11:35:45;;;;;;;19.48;4.32;;;19.80;93.90;;;;;;5013714;28;20049;-79
2022/05/14 11:38:29;;;;;;;21.58;4.35;;;19.70;94.30;;;;;;5032159;28;20049;-80
2022/05/14 11:41:09;;;;;;;18.30;4.00;;;19.60;94.60;;;;;;5020101;28;20060;-79
2022/05/14 11:43:46;;;;;;;19.13;4.43;;;19.60;94.80;;;;;;5030724;28;20046;-79
2022/05/14 11:46:27;;;;;;;24.10;4.35;;;19.80;95.00;;;;;;5049043;28;20141;-79
2022/05/14 11:49:13;;;;;;;22.85;5.00;;;20.00;94.60;;;;;;5030114;28;20500;-80
2022/05/14 11:52:00;;;;;;;16.38;4.35;;;20.20;94.60;;;;;;5030615;28;20049;-80
2022/05/14 11:54:43;;;;;;;26.80;4.72;;;20.40;93.70;;;;;;5030375;28;20072;-80
2022/05/14 11:57:27;;;;;;;18.15;4.30;;;20.40;93.60;;;;;;5010998;28;20075;-80
2022/05/14 12:00:10;;;;;;;16.23;4.55;;;20.40;93.90;;;;;;5011150;28;20693;-80
2022/05/14 12:02:57;;;;;;;20.95;4.47;;;20.30;93.10;;;;;;5024114;28;20481;-79
2022/05/14 12:05:29;;;;;;;18.33;4.60;;;20.30;92.00;;;;;;5034614;28;20488;-80
2022/05/14 12:08:20;;;;;;;23.45;4.43;;;20.50;92.90;;;;;;5029601;28;20439;-81
2022/05/14 12:10:57;;;;;;;17.33;4.20;;;20.60;91.50;;;;;;5029603;28;20045;-82
2022/05/14 12:13:28;;;;;;;22.83;4.68;;;20.70;91.90;;;;;;5025445;28;20064;-84
2022/05/14 12:15:57;;;;;;;18.27;4.07;;;20.90;92.20;;;;;;5055350;28;20408;-83
2022/05/14 12:18:23;;;;;;;21.98;4.82;;;21.10;92.30;;;;;;5035624;28;20037;-83
2022/05/14 12:21:01;;;;;;;17.63;4.30;;;21.40;91.80;;;;;;5026419;28;20041;-82
2022/05/14 12:23:38;;;;;;;17.98;4.30;;;21.50;91.50;;;;;;5025438;28;20045;-83
2022/05/14 12:26:07;;;;;;;15.98;4.47;;;21.50;91.30;;;;;;5030164;28;20057;-84
2022/05/14 12:28:35;;;;;;;17.50;4.15;;;21.40;90.90;;;;;;5028480;28;20076;-83
2022/05/14 12:33:52;;;;;;;17.70;3.92;;;20.90;90.80;;;;;;5030537;28;20049;-80
2022/05/14 12:36:18;;;;;;;20.83;5.10;;;20.70;90.80;;;;;;5029819;28;20076;-82
2022/05/14 12:38:44;;;;;;;16.00;3.95;;;20.60;91.20;;;;;;5031989;28;20457;-81
2022/05/14 12:41:22;;;;;;;14.82;3.95;;;20.50;90.70;;;;;;5026106;28;20076;-81
2022/05/14 12:43:49;;;;;;;16.05;4.07;;;20.50;89.30;;;;;;5023824;28;20475;-77
2022/05/14 12:46:14;;;;;;;17.85;4.20;;;20.40;89.70;;;;;;5027425;28;20057;-81
2022/05/14 12:48:49;;;;;;;20.20;4.25;;;20.30;90.20;;;;;;5023326;28;20053;-76
2022/05/14 12:51:22;;;;;;;;;;;20.30;90.30;;;;;;5026097;28;20060;-77
2022/05/14 12:53:52;;;;;;;17.50;3.63;;;20.30;90.30;;;;;;5029501;28;19972;-78
2022/05/14 12:56:21;;;;;;;20.27;4.53;;;20.30;90.80;;;;;;5019980;28;20050;-78
2022/05/14 12:58:48;;;;;;;19.10;3.70;;;20.50;90.70;;;;;;5031076;28;20052;-78
2022/05/14 13:01:17;;;;;;;20.13;4.25;;;20.60;89.10;;;;;;5023652;28;20137;-78
2022/05/14 13:04:03;;;;;;;17.33;3.35;;;20.80;89.90;;;;;;5029287;28;20531;-78
2022/05/14 13:06:34;;;;;;;14.00;3.85;;;20.90;90.30;;;;;;5029261;28;20056;-78
2022/05/14 13:09:07;;;;;;;17.58;4.10;;;20.90;90.20;;;;;;5026917;28;20042;-78
2022/05/14 13:11:35;;;;;;;15.38;3.95;;;20.90;90.20;;;;;;5027852;28;20060;-78
2022/05/14 13:14:13;;;;;;;14.90;4.05;;;20.90;90.00;;;;;;5060235;28;20118;-78
2022/05/14 13:16:39;;;;;;;14.07;3.45;;;20.80;88.90;;;;;;5025445;28;20481;-78
2022/05/14 13:19:20;;;;;;;18.55;4.65;;;20.80;89.80;;;;;;5023055;28;20049;-78